Etusivu
METAR-TAF:

METAR-TAF

Lentoasemat :

Reid-Hillview Airport of Santa Clara County

San José, Kalifornia, Yhdysvallat

Leveyspiiri: 37-20N, Pituuspiiri: 121-49W, korkeus merenpinnasta: 41 m

Tämänhetkinen sää

Tämä raportti tehtiin 38 minuuttia sitten, kello 04.47 UTC
Tuuli 30 kn pohjoisen/luoteesta
Lämpötila 11°C
Kosteus 82%
Ilmanpaine 1026 hPa
Näkyvyys: 14.5 km
Hajanaisia pilviä 2000 ft:n korkeudessa
Hajonneita pilviä 4000 ft:n korkeudessa

METAR: KRHV 290447Z 33030KT 9SM SCT020 BKN040 11/08 A3031

Aika: 21:25 (05:25 UTC)


TAF: puuttuu

Säähavainnot ja -ennusteet yli 4000 lentoasemalta (METAR- ja TAF-raportit).

Käytössä olevat sääasemat on merkitty karttaan keltaisilla ja punaisilla pisteillä.

Aseta hiiri pisteen päälle nähdäksesi sääaseman nimen.

Klikkaa sitten nähdäksesi säähavainnot ja -ennusteet.

Kartan vaihtaminen: klikkaa mustalla rastilla varustettuja vihreitä pisteitä, niin voit zoomata sisään; viivalla varustettua vihreää pistettä, niin voit zoomata ulos tai vihreitä nuolia, niin pääset viereisille kartoille.


METAR-TAF: